sensor_id;sensor_type;location;lat;lon;timestamp;P1;durP1;ratioP1;P2;durP2;ratioP2
7375;SDS011;3728;42.266;24.944;2022-12-20T00:01:37;12.03;;;7.73;;
7375;SDS011;3728;42.266;24.944;2022-12-20T00:04:05;12.00;;;7.90;;
7375;SDS011;3728;42.266;24.944;2022-12-20T00:06:33;9.97;;;7.20;;
7375;SDS011;3728;42.266;24.944;2022-12-20T00:09:02;11.77;;;7.43;;
7375;SDS011;3728;42.266;24.944;2022-12-20T00:11:33;13.93;;;8.23;;
7375;SDS011;3728;42.266;24.944;2022-12-20T00:14:01;13.73;;;8.13;;
7375;SDS011;3728;42.266;24.944;2022-12-20T00:16:29;12.30;;;7.90;;
7375;SDS011;3728;42.266;24.944;2022-12-20T00:18:57;11.80;;;8.13;;
7375;SDS011;3728;42.266;24.944;2022-12-20T00:21:29;12.30;;;7.67;;
7375;SDS011;3728;42.266;24.944;2022-12-20T00:23:58;12.17;;;8.03;;
7375;SDS011;3728;42.266;24.944;2022-12-20T00:26:27;13.53;;;7.87;;
7375;SDS011;3728;42.266;24.944;2022-12-20T00:28:57;12.87;;;8.07;;
7375;SDS011;3728;42.266;24.944;2022-12-20T00:31:27;10.27;;;6.97;;
7375;SDS011;3728;42.266;24.944;2022-12-20T00:33:57;12.43;;;7.53;;
7375;SDS011;3728;42.266;24.944;2022-12-20T00:36:29;11.87;;;7.70;;
7375;SDS011;3728;42.266;24.944;2022-12-20T00:38:58;11.13;;;7.07;;
7375;SDS011;3728;42.266;24.944;2022-12-20T00:41:28;11.10;;;7.10;;
7375;SDS011;3728;42.266;24.944;2022-12-20T00:44:02;10.73;;;7.13;;
7375;SDS011;3728;42.266;24.944;2022-12-20T00:46:31;13.40;;;7.23;;
7375;SDS011;3728;42.266;24.944;2022-12-20T00:48:59;10.80;;;6.97;;
7375;SDS011;3728;42.266;24.944;2022-12-20T00:51:28;10.83;;;6.90;;
7375;SDS011;3728;42.266;24.944;2022-12-20T00:54:01;11.43;;;7.27;;
7375;SDS011;3728;42.266;24.944;2022-12-20T00:56:29;10.50;;;6.97;;
7375;SDS011;3728;42.266;24.944;2022-12-20T00:58:57;11.33;;;7.33;;
7375;SDS011;3728;42.266;24.944;2022-12-20T01:01:29;13.77;;;8.00;;
7375;SDS011;3728;42.266;24.944;2022-12-20T01:04:03;12.93;;;7.60;;
7375;SDS011;3728;42.266;24.944;2022-12-20T01:06:32;12.70;;;7.80;;
7375;SDS011;3728;42.266;24.944;2022-12-20T01:09:01;11.20;;;7.17;;
7375;SDS011;3728;42.266;24.944;2022-12-20T01:11:34;15.00;;;7.70;;
7375;SDS011;3728;42.266;24.944;2022-12-20T01:14:07;9.27;;;6.63;;
7375;SDS011;3728;42.266;24.944;2022-12-20T01:16:40;12.30;;;7.97;;
7375;SDS011;3728;42.266;24.944;2022-12-20T01:19:13;11.57;;;7.03;;
7375;SDS011;3728;42.266;24.944;2022-12-20T01:21:43;11.90;;;7.37;;
7375;SDS011;3728;42.266;24.944;2022-12-20T01:24:15;12.87;;;7.33;;
7375;SDS011;3728;42.266;24.944;2022-12-20T01:26:45;10.90;;;7.17;;
7375;SDS011;3728;42.266;24.944;2022-12-20T01:29:13;11.40;;;6.73;;
7375;SDS011;3728;42.266;24.944;2022-12-20T01:31:41;12.13;;;7.00;;
7375;SDS011;3728;42.266;24.944;2022-12-20T01:34:10;11.07;;;7.33;;
7375;SDS011;3728;42.266;24.944;2022-12-20T01:36:38;10.20;;;6.67;;
7375;SDS011;3728;42.266;24.944;2022-12-20T01:39:07;10.77;;;6.83;;
7375;SDS011;3728;42.266;24.944;2022-12-20T01:41:40;10.03;;;7.13;;
7375;SDS011;3728;42.266;24.944;2022-12-20T01:46:45;13.20;;;7.93;;
7375;SDS011;3728;42.266;24.944;2022-12-20T01:52:11;11.83;;;7.90;;
7375;SDS011;3728;42.266;24.944;2022-12-20T01:54:45;11.03;;;7.27;;
7375;SDS011;3728;42.266;24.944;2022-12-20T02:00:26;12.17;;;7.13;;
7375;SDS011;3728;42.266;24.944;2022-12-20T02:02:54;11.07;;;6.63;;
7375;SDS011;3728;42.266;24.944;2022-12-20T02:05:32;11.97;;;6.93;;
7375;SDS011;3728;42.266;24.944;2022-12-20T02:08:06;9.97;;;6.67;;
7375;SDS011;3728;42.266;24.944;2022-12-20T02:11:13;10.90;;;6.87;;
7375;SDS011;3728;42.266;24.944;2022-12-20T02:16:28;14.63;;;8.20;;
7375;SDS011;3728;42.266;24.944;2022-12-20T02:19:12;15.63;;;8.80;;
7375;SDS011;3728;42.266;24.944;2022-12-20T02:22:50;15.10;;;8.63;;
7375;SDS011;3728;42.266;24.944;2022-12-20T02:25:37;16.77;;;9.50;;
7375;SDS011;3728;42.266;24.944;2022-12-20T02:28:51;22.50;;;10.70;;
7375;SDS011;3728;42.266;24.944;2022-12-20T02:34:39;20.00;;;11.03;;
7375;SDS011;3728;42.266;24.944;2022-12-20T02:37:08;17.20;;;11.77;;
7375;SDS011;3728;42.266;24.944;2022-12-20T02:39:38;30.90;;;16.10;;
7375;SDS011;3728;42.266;24.944;2022-12-20T02:42:09;29.43;;;16.53;;
7375;SDS011;3728;42.266;24.944;2022-12-20T02:44:40;30.30;;;18.30;;
7375;SDS011;3728;42.266;24.944;2022-12-20T02:47:51;30.23;;;17.97;;
7375;SDS011;3728;42.266;24.944;2022-12-20T02:50:34;27.97;;;18.27;;
7375;SDS011;3728;42.266;24.944;2022-12-20T02:53:04;25.20;;;16.37;;
7375;SDS011;3728;42.266;24.944;2022-12-20T03:01:15;24.63;;;15.33;;
7375;SDS011;3728;42.266;24.944;2022-12-20T03:04:05;23.07;;;14.70;;
7375;SDS011;3728;42.266;24.944;2022-12-20T03:06:34;20.87;;;11.80;;
7375;SDS011;3728;42.266;24.944;2022-12-20T03:09:02;23.53;;;13.10;;
7375;SDS011;3728;42.266;24.944;2022-12-20T03:11:32;22.77;;;13.63;;
7375;SDS011;3728;42.266;24.944;2022-12-20T03:13:59;21.57;;;13.20;;
7375;SDS011;3728;42.266;24.944;2022-12-20T03:16:27;23.70;;;13.03;;
7375;SDS011;3728;42.266;24.944;2022-12-20T03:18:55;19.57;;;12.60;;
7375;SDS011;3728;42.266;24.944;2022-12-20T03:21:23;17.80;;;11.07;;
7375;SDS011;3728;42.266;24.944;2022-12-20T03:23:50;22.43;;;12.70;;
7375;SDS011;3728;42.266;24.944;2022-12-20T03:26:18;27.10;;;13.17;;
7375;SDS011;3728;42.266;24.944;2022-12-20T03:28:51;24.93;;;12.67;;
7375;SDS011;3728;42.266;24.944;2022-12-20T03:31:21;34.40;;;13.23;;
7375;SDS011;3728;42.266;24.944;2022-12-20T03:33:52;26.57;;;16.50;;
7375;SDS011;3728;42.266;24.944;2022-12-20T03:36:21;31.73;;;19.67;;
7375;SDS011;3728;42.266;24.944;2022-12-20T03:38:56;29.17;;;16.70;;
7375;SDS011;3728;42.266;24.944;2022-12-20T03:41:26;27.77;;;14.20;;
7375;SDS011;3728;42.266;24.944;2022-12-20T03:43:54;36.70;;;17.17;;
7375;SDS011;3728;42.266;24.944;2022-12-20T03:46:23;33.03;;;17.63;;
7375;SDS011;3728;42.266;24.944;2022-12-20T03:48:51;24.50;;;14.30;;
7375;SDS011;3728;42.266;24.944;2022-12-20T03:51:20;24.93;;;12.90;;
7375;SDS011;3728;42.266;24.944;2022-12-20T03:53:47;21.60;;;11.73;;
7375;SDS011;3728;42.266;24.944;2022-12-20T03:56:15;20.13;;;10.57;;
7375;SDS011;3728;42.266;24.944;2022-12-20T03:58:44;17.33;;;10.73;;
7375;SDS011;3728;42.266;24.944;2022-12-20T04:01:20;24.57;;;11.67;;
7375;SDS011;3728;42.266;24.944;2022-12-20T04:03:54;20.90;;;13.67;;
7375;SDS011;3728;42.266;24.944;2022-12-20T04:06:22;27.13;;;17.00;;
7375;SDS011;3728;42.266;24.944;2022-12-20T04:08:50;33.63;;;19.13;;
7375;SDS011;3728;42.266;24.944;2022-12-20T04:11:26;28.57;;;18.17;;
7375;SDS011;3728;42.266;24.944;2022-12-20T04:14:02;23.53;;;15.57;;
7375;SDS011;3728;42.266;24.944;2022-12-20T04:16:31;28.97;;;15.40;;
7375;SDS011;3728;42.266;24.944;2022-12-20T04:19:00;35.27;;;17.47;;
7375;SDS011;3728;42.266;24.944;2022-12-20T04:21:34;48.10;;;18.97;;
7375;SDS011;3728;42.266;24.944;2022-12-20T04:24:03;32.53;;;19.23;;
7375;SDS011;3728;42.266;24.944;2022-12-20T04:26:44;91.93;;;37.43;;
7375;SDS011;3728;42.266;24.944;2022-12-20T04:29:13;51.57;;;27.93;;
7375;SDS011;3728;42.266;24.944;2022-12-20T04:31:42;39.97;;;21.80;;
7375;SDS011;3728;42.266;24.944;2022-12-20T04:34:10;58.07;;;27.97;;
7375;SDS011;3728;42.266;24.944;2022-12-20T04:36:38;79.63;;;42.23;;
7375;SDS011;3728;42.266;24.944;2022-12-20T04:39:11;44.47;;;22.80;;
7375;SDS011;3728;42.266;24.944;2022-12-20T04:41:56;39.47;;;21.70;;
7375;SDS011;3728;42.266;24.944;2022-12-20T04:44:23;49.60;;;23.33;;
7375;SDS011;3728;42.266;24.944;2022-12-20T04:46:54;29.77;;;18.73;;
7375;SDS011;3728;42.266;24.944;2022-12-20T04:49:21;29.37;;;17.43;;
7375;SDS011;3728;42.266;24.944;2022-12-20T04:51:49;32.47;;;17.50;;
7375;SDS011;3728;42.266;24.944;2022-12-20T04:54:17;33.13;;;18.93;;
7375;SDS011;3728;42.266;24.944;2022-12-20T04:56:55;45.10;;;17.90;;
7375;SDS011;3728;42.266;24.944;2022-12-20T04:59:23;33.57;;;17.83;;
7375;SDS011;3728;42.266;24.944;2022-12-20T05:01:52;57.17;;;26.87;;
7375;SDS011;3728;42.266;24.944;2022-12-20T05:04:47;51.87;;;23.90;;
7375;SDS011;3728;42.266;24.944;2022-12-20T05:07:18;52.00;;;21.53;;
7375;SDS011;3728;42.266;24.944;2022-12-20T05:09:50;24.20;;;13.10;;
7375;SDS011;3728;42.266;24.944;2022-12-20T05:12:19;24.97;;;11.00;;
7375;SDS011;3728;42.266;24.944;2022-12-20T05:14:47;27.30;;;10.70;;
7375;SDS011;3728;42.266;24.944;2022-12-20T05:17:20;45.53;;;20.60;;
7375;SDS011;3728;42.266;24.944;2022-12-20T05:19:48;49.07;;;26.40;;
7375;SDS011;3728;42.266;24.944;2022-12-20T05:22:15;36.10;;;18.43;;
7375;SDS011;3728;42.266;24.944;2022-12-20T05:25:11;30.30;;;15.40;;
7375;SDS011;3728;42.266;24.944;2022-12-20T05:28:02;28.67;;;13.47;;
7375;SDS011;3728;42.266;24.944;2022-12-20T05:30:33;18.10;;;11.57;;
7375;SDS011;3728;42.266;24.944;2022-12-20T05:33:01;21.77;;;11.03;;
7375;SDS011;3728;42.266;24.944;2022-12-20T05:35:29;17.83;;;11.37;;
7375;SDS011;3728;42.266;24.944;2022-12-20T05:38:05;23.93;;;11.80;;
7375;SDS011;3728;42.266;24.944;2022-12-20T05:40:34;24.53;;;12.20;;
7375;SDS011;3728;42.266;24.944;2022-12-20T05:43:01;22.53;;;13.50;;
7375;SDS011;3728;42.266;24.944;2022-12-20T05:45:37;23.07;;;12.50;;
7375;SDS011;3728;42.266;24.944;2022-12-20T05:48:12;26.33;;;14.13;;
7375;SDS011;3728;42.266;24.944;2022-12-20T05:50:41;28.50;;;17.40;;
7375;SDS011;3728;42.266;24.944;2022-12-20T05:53:27;43.00;;;16.60;;
7375;SDS011;3728;42.266;24.944;2022-12-20T05:55:58;51.30;;;15.17;;
7375;SDS011;3728;42.266;24.944;2022-12-20T05:58:30;42.97;;;19.97;;
7375;SDS011;3728;42.266;24.944;2022-12-20T06:01:01;63.97;;;20.27;;
7375;SDS011;3728;42.266;24.944;2022-12-20T06:03:35;59.97;;;23.73;;
7375;SDS011;3728;42.266;24.944;2022-12-20T06:06:22;48.57;;;23.30;;
7375;SDS011;3728;42.266;24.944;2022-12-20T06:08:52;54.17;;;24.70;;
7375;SDS011;3728;42.266;24.944;2022-12-20T06:11:37;64.90;;;24.93;;
7375;SDS011;3728;42.266;24.944;2022-12-20T06:14:10;100.70;;;44.73;;
7375;SDS011;3728;42.266;24.944;2022-12-20T06:16:42;387.70;;;186.20;;
7375;SDS011;3728;42.266;24.944;2022-12-20T06:19:10;68.53;;;31.63;;
7375;SDS011;3728;42.266;24.944;2022-12-20T06:21:47;60.63;;;29.23;;
7375;SDS011;3728;42.266;24.944;2022-12-20T06:24:17;61.67;;;33.37;;
7375;SDS011;3728;42.266;24.944;2022-12-20T06:26:46;69.53;;;32.83;;
7375;SDS011;3728;42.266;24.944;2022-12-20T06:29:13;59.60;;;30.40;;
7375;SDS011;3728;42.266;24.944;2022-12-20T06:31:49;57.17;;;28.63;;
7375;SDS011;3728;42.266;24.944;2022-12-20T06:34:16;74.30;;;33.60;;
7375;SDS011;3728;42.266;24.944;2022-12-20T06:36:45;43.00;;;21.20;;
7375;SDS011;3728;42.266;24.944;2022-12-20T06:39:18;40.67;;;20.57;;
7375;SDS011;3728;42.266;24.944;2022-12-20T06:42:00;31.23;;;17.53;;
7375;SDS011;3728;42.266;24.944;2022-12-20T06:44:28;28.40;;;13.67;;
7375;SDS011;3728;42.266;24.944;2022-12-20T06:46:55;27.50;;;18.33;;
7375;SDS011;3728;42.266;24.944;2022-12-20T06:49:23;26.57;;;15.50;;
7375;SDS011;3728;42.266;24.944;2022-12-20T06:51:51;23.73;;;14.93;;
7375;SDS011;3728;42.266;24.944;2022-12-20T06:54:24;26.37;;;16.27;;
7375;SDS011;3728;42.266;24.944;2022-12-20T06:56:52;48.50;;;28.40;;
7375;SDS011;3728;42.266;24.944;2022-12-20T06:59:20;51.57;;;27.50;;
7375;SDS011;3728;42.266;24.944;2022-12-20T07:01:47;40.77;;;25.50;;
7375;SDS011;3728;42.266;24.944;2022-12-20T07:04:15;55.33;;;31.83;;
7375;SDS011;3728;42.266;24.944;2022-12-20T07:06:42;53.13;;;29.37;;
7375;SDS011;3728;42.266;24.944;2022-12-20T07:09:10;51.37;;;30.63;;
7375;SDS011;3728;42.266;24.944;2022-12-20T07:11:38;56.40;;;33.87;;
7375;SDS011;3728;42.266;24.944;2022-12-20T07:14:05;46.27;;;29.80;;
7375;SDS011;3728;42.266;24.944;2022-12-20T07:16:34;36.37;;;18.33;;
7375;SDS011;3728;42.266;24.944;2022-12-20T07:19:02;35.10;;;22.93;;
7375;SDS011;3728;42.266;24.944;2022-12-20T07:21:30;26.63;;;16.57;;
7375;SDS011;3728;42.266;24.944;2022-12-20T07:23:57;35.13;;;20.80;;
7375;SDS011;3728;42.266;24.944;2022-12-20T07:26:25;26.40;;;16.17;;
7375;SDS011;3728;42.266;24.944;2022-12-20T07:28:52;25.83;;;17.10;;
7375;SDS011;3728;42.266;24.944;2022-12-20T07:31:20;23.70;;;14.00;;
7375;SDS011;3728;42.266;24.944;2022-12-20T07:33:48;24.67;;;14.93;;
7375;SDS011;3728;42.266;24.944;2022-12-20T07:36:15;33.00;;;18.53;;
7375;SDS011;3728;42.266;24.944;2022-12-20T07:38:43;19.37;;;13.37;;
7375;SDS011;3728;42.266;24.944;2022-12-20T07:41:14;21.00;;;14.40;;
7375;SDS011;3728;42.266;24.944;2022-12-20T07:43:44;28.77;;;14.70;;
7375;SDS011;3728;42.266;24.944;2022-12-20T07:46:13;30.93;;;20.90;;
7375;SDS011;3728;42.266;24.944;2022-12-20T07:48:41;21.33;;;15.47;;
7375;SDS011;3728;42.266;24.944;2022-12-20T07:51:18;29.80;;;19.03;;
7375;SDS011;3728;42.266;24.944;2022-12-20T07:54:10;22.93;;;13.47;;
7375;SDS011;3728;42.266;24.944;2022-12-20T07:56:51;26.77;;;15.43;;
7375;SDS011;3728;42.266;24.944;2022-12-20T07:59:27;21.27;;;14.90;;
7375;SDS011;3728;42.266;24.944;2022-12-20T08:02:02;16.33;;;11.13;;
7375;SDS011;3728;42.266;24.944;2022-12-20T08:04:32;18.13;;;11.47;;
7375;SDS011;3728;42.266;24.944;2022-12-20T08:07:00;26.37;;;13.40;;
7375;SDS011;3728;42.266;24.944;2022-12-20T08:09:29;19.30;;;12.93;;
7375;SDS011;3728;42.266;24.944;2022-12-20T08:12:02;24.80;;;13.93;;
7375;SDS011;3728;42.266;24.944;2022-12-20T08:14:30;27.97;;;17.23;;
7375;SDS011;3728;42.266;24.944;2022-12-20T08:16:58;22.07;;;12.43;;
7375;SDS011;3728;42.266;24.944;2022-12-20T08:19:25;27.80;;;14.77;;
7375;SDS011;3728;42.266;24.944;2022-12-20T08:21:58;21.33;;;13.03;;
7375;SDS011;3728;42.266;24.944;2022-12-20T08:24:25;18.47;;;10.53;;
7375;SDS011;3728;42.266;24.944;2022-12-20T08:26:53;19.50;;;10.83;;
7375;SDS011;3728;42.266;24.944;2022-12-20T08:29:20;20.90;;;12.57;;
7375;SDS011;3728;42.266;24.944;2022-12-20T08:31:48;22.53;;;12.27;;
7375;SDS011;3728;42.266;24.944;2022-12-20T08:34:16;20.00;;;12.20;;
7375;SDS011;3728;42.266;24.944;2022-12-20T08:36:44;16.37;;;10.80;;
7375;SDS011;3728;42.266;24.944;2022-12-20T08:39:12;20.00;;;12.37;;
7375;SDS011;3728;42.266;24.944;2022-12-20T08:41:39;19.50;;;12.07;;
7375;SDS011;3728;42.266;24.944;2022-12-20T08:44:06;16.47;;;10.63;;
7375;SDS011;3728;42.266;24.944;2022-12-20T08:46:35;17.87;;;10.87;;
7375;SDS011;3728;42.266;24.944;2022-12-20T08:49:04;21.03;;;11.50;;
7375;SDS011;3728;42.266;24.944;2022-12-20T08:51:31;17.23;;;11.07;;
7375;SDS011;3728;42.266;24.944;2022-12-20T08:53:59;22.50;;;13.20;;
7375;SDS011;3728;42.266;24.944;2022-12-20T08:56:28;19.47;;;11.40;;
7375;SDS011;3728;42.266;24.944;2022-12-20T08:58:55;17.20;;;10.17;;
7375;SDS011;3728;42.266;24.944;2022-12-20T09:01:23;31.13;;;21.13;;
7375;SDS011;3728;42.266;24.944;2022-12-20T09:03:52;15.77;;;10.37;;
7375;SDS011;3728;42.266;24.944;2022-12-20T09:06:21;23.03;;;13.60;;
7375;SDS011;3728;42.266;24.944;2022-12-20T09:08:49;14.43;;;9.70;;
7375;SDS011;3728;42.266;24.944;2022-12-20T09:11:18;21.77;;;12.47;;
7375;SDS011;3728;42.266;24.944;2022-12-20T09:13:49;14.83;;;10.30;;
7375;SDS011;3728;42.266;24.944;2022-12-20T09:16:24;14.20;;;9.50;;
7375;SDS011;3728;42.266;24.944;2022-12-20T09:18:59;18.57;;;12.53;;
7375;SDS011;3728;42.266;24.944;2022-12-20T09:21:31;15.80;;;9.30;;
7375;SDS011;3728;42.266;24.944;2022-12-20T09:24:00;15.53;;;10.73;;
7375;SDS011;3728;42.266;24.944;2022-12-20T09:26:27;16.07;;;10.00;;
7375;SDS011;3728;42.266;24.944;2022-12-20T09:28:59;17.63;;;10.47;;
7375;SDS011;3728;42.266;24.944;2022-12-20T09:31:30;17.10;;;9.60;;
7375;SDS011;3728;42.266;24.944;2022-12-20T09:33:58;14.20;;;10.20;;
7375;SDS011;3728;42.266;24.944;2022-12-20T09:36:27;14.63;;;9.30;;
7375;SDS011;3728;42.266;24.944;2022-12-20T09:38:56;18.03;;;11.40;;
7375;SDS011;3728;42.266;24.944;2022-12-20T09:46:46;16.63;;;9.33;;
7375;SDS011;3728;42.266;24.944;2022-12-20T09:49:24;12.67;;;9.17;;
7375;SDS011;3728;42.266;24.944;2022-12-20T10:00:22;14.83;;;10.20;;
7375;SDS011;3728;42.266;24.944;2022-12-20T10:02:50;15.13;;;10.33;;
7375;SDS011;3728;42.266;24.944;2022-12-20T10:05:56;23.33;;;12.80;;
7375;SDS011;3728;42.266;24.944;2022-12-20T10:17:13;19.67;;;11.47;;
7375;SDS011;3728;42.266;24.944;2022-12-20T10:20:21;18.57;;;10.90;;
7375;SDS011;3728;42.266;24.944;2022-12-20T10:23:00;17.33;;;9.77;;
7375;SDS011;3728;42.266;24.944;2022-12-20T10:25:40;15.30;;;9.27;;
7375;SDS011;3728;42.266;24.944;2022-12-20T10:28:11;16.30;;;9.73;;
7375;SDS011;3728;42.266;24.944;2022-12-20T10:30:42;15.77;;;9.00;;
7375;SDS011;3728;42.266;24.944;2022-12-20T10:33:15;13.37;;;9.23;;
7375;SDS011;3728;42.266;24.944;2022-12-20T10:35:47;14.37;;;8.83;;
7375;SDS011;3728;42.266;24.944;2022-12-20T10:38:16;16.13;;;9.13;;
7375;SDS011;3728;42.266;24.944;2022-12-20T10:40:45;14.70;;;8.47;;
7375;SDS011;3728;42.266;24.944;2022-12-20T10:43:47;12.57;;;7.30;;
7375;SDS011;3728;42.266;24.944;2022-12-20T10:46:37;11.80;;;7.30;;
7375;SDS011;3728;42.266;24.944;2022-12-20T10:52:02;10.30;;;7.53;;
7375;SDS011;3728;42.266;24.944;2022-12-20T10:54:39;9.17;;;6.73;;
7375;SDS011;3728;42.266;24.944;2022-12-20T10:59:48;12.77;;;7.80;;
7375;SDS011;3728;42.266;24.944;2022-12-20T11:02:34;8.77;;;6.83;;
7375;SDS011;3728;42.266;24.944;2022-12-20T11:07:56;9.50;;;6.80;;
7375;SDS011;3728;42.266;24.944;2022-12-20T11:11:12;13.97;;;8.83;;
7375;SDS011;3728;42.266;24.944;2022-12-20T11:13:50;20.37;;;12.63;;
7375;SDS011;3728;42.266;24.944;2022-12-20T11:18:57;16.87;;;12.97;;
7375;SDS011;3728;42.266;24.944;2022-12-20T11:21:45;18.33;;;11.00;;
7375;SDS011;3728;42.266;24.944;2022-12-20T11:40:21;12.70;;;8.03;;
7375;SDS011;3728;42.266;24.944;2022-12-20T11:52:35;8.00;;;6.50;;
7375;SDS011;3728;42.266;24.944;2022-12-20T11:55:18;8.97;;;6.07;;
7375;SDS011;3728;42.266;24.944;2022-12-20T12:00:49;8.53;;;6.37;;
7375;SDS011;3728;42.266;24.944;2022-12-20T12:03:42;9.07;;;5.93;;
7375;SDS011;3728;42.266;24.944;2022-12-20T12:07:15;8.30;;;6.20;;
7375;SDS011;3728;42.266;24.944;2022-12-20T12:10:04;8.30;;;5.80;;
7375;SDS011;3728;42.266;24.944;2022-12-20T12:12:46;7.50;;;5.40;;
7375;SDS011;3728;42.266;24.944;2022-12-20T12:15:27;24.43;;;14.13;;
7375;SDS011;3728;42.266;24.944;2022-12-20T12:18:18;9.70;;;6.70;;
7375;SDS011;3728;42.266;24.944;2022-12-20T12:21:04;11.03;;;7.17;;
7375;SDS011;3728;42.266;24.944;2022-12-20T12:26:48;10.33;;;6.90;;
7375;SDS011;3728;42.266;24.944;2022-12-20T12:29:16;9.27;;;5.47;;
7375;SDS011;3728;42.266;24.944;2022-12-20T12:31:50;8.80;;;5.80;;
7375;SDS011;3728;42.266;24.944;2022-12-20T12:40:12;5.50;;;4.73;;
7375;SDS011;3728;42.266;24.944;2022-12-20T12:45:57;7.27;;;4.67;;
7375;SDS011;3728;42.266;24.944;2022-12-20T12:48:37;7.07;;;4.90;;
7375;SDS011;3728;42.266;24.944;2022-12-20T12:51:12;4.27;;;3.80;;
7375;SDS011;3728;42.266;24.944;2022-12-20T13:01:46;5.03;;;3.70;;
7375;SDS011;3728;42.266;24.944;2022-12-20T13:27:34;15.80;;;6.33;;
7375;SDS011;3728;42.266;24.944;2022-12-20T13:40:37;13.10;;;7.10;;
7375;SDS011;3728;42.266;24.944;2022-12-20T13:51:23;15.93;;;6.73;;
7375;SDS011;3728;42.266;24.944;2022-12-20T13:53:53;10.83;;;6.07;;
7375;SDS011;3728;42.266;24.944;2022-12-20T13:58:55;10.60;;;7.57;;
7375;SDS011;3728;42.266;24.944;2022-12-20T14:01:49;10.83;;;6.00;;
7375;SDS011;3728;42.266;24.944;2022-12-20T14:04:20;8.20;;;7.00;;
7375;SDS011;3728;42.266;24.944;2022-12-20T14:06:52;11.87;;;7.53;;
7375;SDS011;3728;42.266;24.944;2022-12-20T14:09:43;16.07;;;9.00;;
7375;SDS011;3728;42.266;24.944;2022-12-20T14:12:14;13.03;;;8.60;;
7375;SDS011;3728;42.266;24.944;2022-12-20T14:14:51;12.53;;;7.33;;
7375;SDS011;3728;42.266;24.944;2022-12-20T14:17:24;10.93;;;7.27;;
7375;SDS011;3728;42.266;24.944;2022-12-20T14:22:53;13.57;;;7.67;;
7375;SDS011;3728;42.266;24.944;2022-12-20T14:25:33;12.40;;;7.27;;
7375;SDS011;3728;42.266;24.944;2022-12-20T14:28:13;9.33;;;6.97;;
7375;SDS011;3728;42.266;24.944;2022-12-20T14:30:53;18.47;;;7.60;;
7375;SDS011;3728;42.266;24.944;2022-12-20T14:33:30;14.20;;;7.37;;
7375;SDS011;3728;42.266;24.944;2022-12-20T14:36:09;9.70;;;6.50;;
7375;SDS011;3728;42.266;24.944;2022-12-20T14:38:48;12.20;;;6.50;;
7375;SDS011;3728;42.266;24.944;2022-12-20T14:41:33;9.90;;;6.73;;
7375;SDS011;3728;42.266;24.944;2022-12-20T14:46:56;11.30;;;7.10;;
7375;SDS011;3728;42.266;24.944;2022-12-20T14:49:37;21.63;;;7.53;;
7375;SDS011;3728;42.266;24.944;2022-12-20T14:55:01;30.97;;;17.40;;
7375;SDS011;3728;42.266;24.944;2022-12-20T15:00:21;28.80;;;18.63;;
7375;SDS011;3728;42.266;24.944;2022-12-20T15:03:17;46.27;;;29.13;;
7375;SDS011;3728;42.266;24.944;2022-12-20T15:05:47;57.47;;;35.23;;
7375;SDS011;3728;42.266;24.944;2022-12-20T15:08:18;55.70;;;34.30;;
7375;SDS011;3728;42.266;24.944;2022-12-20T15:10:54;61.77;;;37.57;;
7375;SDS011;3728;42.266;24.944;2022-12-20T15:13:37;59.00;;;36.70;;
7375;SDS011;3728;42.266;24.944;2022-12-20T15:16:13;58.33;;;36.17;;
7375;SDS011;3728;42.266;24.944;2022-12-20T15:18:58;48.90;;;33.67;;
7375;SDS011;3728;42.266;24.944;2022-12-20T15:24:09;63.10;;;34.87;;
7375;SDS011;3728;42.266;24.944;2022-12-20T15:26:40;86.50;;;47.87;;
7375;SDS011;3728;42.266;24.944;2022-12-20T15:32:06;43.43;;;24.97;;
7375;SDS011;3728;42.266;24.944;2022-12-20T15:34:43;28.90;;;17.40;;
7375;SDS011;3728;42.266;24.944;2022-12-20T15:37:13;24.87;;;15.53;;
7375;SDS011;3728;42.266;24.944;2022-12-20T15:39:44;44.80;;;23.33;;
7375;SDS011;3728;42.266;24.944;2022-12-20T15:42:14;49.67;;;27.60;;
7375;SDS011;3728;42.266;24.944;2022-12-20T15:44:43;36.80;;;23.50;;
7375;SDS011;3728;42.266;24.944;2022-12-20T15:47:12;42.50;;;28.60;;
7375;SDS011;3728;42.266;24.944;2022-12-20T15:49:40;45.70;;;27.00;;
7375;SDS011;3728;42.266;24.944;2022-12-20T15:52:17;52.83;;;30.77;;
7375;SDS011;3728;42.266;24.944;2022-12-20T15:54:49;101.93;;;49.97;;
7375;SDS011;3728;42.266;24.944;2022-12-20T15:57:16;145.00;;;65.33;;
7375;SDS011;3728;42.266;24.944;2022-12-20T15:59:44;153.70;;;71.80;;
7375;SDS011;3728;42.266;24.944;2022-12-20T16:02:40;166.80;;;73.47;;
7375;SDS011;3728;42.266;24.944;2022-12-20T16:05:16;149.63;;;64.13;;
7375;SDS011;3728;42.266;24.944;2022-12-20T16:07:47;146.57;;;65.63;;
7375;SDS011;3728;42.266;24.944;2022-12-20T16:10:15;152.77;;;71.57;;
7375;SDS011;3728;42.266;24.944;2022-12-20T16:12:43;148.27;;;67.77;;
7375;SDS011;3728;42.266;24.944;2022-12-20T16:15:20;155.37;;;73.93;;
7375;SDS011;3728;42.266;24.944;2022-12-20T16:17:48;160.03;;;80.57;;
7375;SDS011;3728;42.266;24.944;2022-12-20T16:20:18;163.33;;;79.43;;
7375;SDS011;3728;42.266;24.944;2022-12-20T16:22:47;141.60;;;75.63;;
7375;SDS011;3728;42.266;24.944;2022-12-20T16:25:22;143.13;;;81.40;;
7375;SDS011;3728;42.266;24.944;2022-12-20T16:27:56;124.17;;;63.03;;
7375;SDS011;3728;42.266;24.944;2022-12-20T16:30:26;78.10;;;44.53;;
7375;SDS011;3728;42.266;24.944;2022-12-20T16:32:54;104.03;;;53.70;;
7375;SDS011;3728;42.266;24.944;2022-12-20T16:37:58;179.30;;;90.73;;
7375;SDS011;3728;42.266;24.944;2022-12-20T16:40:27;160.77;;;82.43;;
7375;SDS011;3728;42.266;24.944;2022-12-20T16:42:58;110.87;;;59.87;;
7375;SDS011;3728;42.266;24.944;2022-12-20T16:45:30;92.97;;;50.03;;
7375;SDS011;3728;42.266;24.944;2022-12-20T16:48:00;57.63;;;34.17;;
7375;SDS011;3728;42.266;24.944;2022-12-20T16:50:29;47.47;;;28.83;;
7375;SDS011;3728;42.266;24.944;2022-12-20T16:52:58;45.83;;;26.30;;
7375;SDS011;3728;42.266;24.944;2022-12-20T16:55:30;37.93;;;24.03;;
7375;SDS011;3728;42.266;24.944;2022-12-20T16:58:05;35.27;;;23.07;;
7375;SDS011;3728;42.266;24.944;2022-12-20T17:00:33;41.17;;;24.70;;
7375;SDS011;3728;42.266;24.944;2022-12-20T17:03:11;39.13;;;26.33;;
7375;SDS011;3728;42.266;24.944;2022-12-20T17:05:44;52.20;;;31.80;;
7375;SDS011;3728;42.266;24.944;2022-12-20T17:08:12;57.60;;;33.93;;
7375;SDS011;3728;42.266;24.944;2022-12-20T17:10:59;66.40;;;39.60;;
7375;SDS011;3728;42.266;24.944;2022-12-20T17:13:29;41.83;;;27.80;;
7375;SDS011;3728;42.266;24.944;2022-12-20T17:15:59;42.00;;;27.00;;
7375;SDS011;3728;42.266;24.944;2022-12-20T17:18:28;38.97;;;24.00;;
7375;SDS011;3728;42.266;24.944;2022-12-20T17:20:59;38.73;;;23.33;;
7375;SDS011;3728;42.266;24.944;2022-12-20T17:23:52;38.07;;;23.43;;
7375;SDS011;3728;42.266;24.944;2022-12-20T17:26:23;38.23;;;23.97;;
7375;SDS011;3728;42.266;24.944;2022-12-20T17:28:53;37.63;;;23.27;;
7375;SDS011;3728;42.266;24.944;2022-12-20T17:34:02;40.37;;;24.93;;
7375;SDS011;3728;42.266;24.944;2022-12-20T17:36:32;42.40;;;25.50;;
7375;SDS011;3728;42.266;24.944;2022-12-20T17:39:04;51.33;;;27.53;;
7375;SDS011;3728;42.266;24.944;2022-12-20T17:41:36;46.03;;;27.07;;
7375;SDS011;3728;42.266;24.944;2022-12-20T17:44:09;50.07;;;29.93;;
7375;SDS011;3728;42.266;24.944;2022-12-20T17:47:13;47.67;;;29.30;;
7375;SDS011;3728;42.266;24.944;2022-12-20T17:49:42;49.20;;;29.47;;
7375;SDS011;3728;42.266;24.944;2022-12-20T17:52:14;44.83;;;28.63;;
7375;SDS011;3728;42.266;24.944;2022-12-20T17:54:54;51.57;;;29.30;;
7375;SDS011;3728;42.266;24.944;2022-12-20T17:57:22;47.57;;;28.77;;
7375;SDS011;3728;42.266;24.944;2022-12-20T17:59:56;41.40;;;25.73;;
7375;SDS011;3728;42.266;24.944;2022-12-20T18:02:24;33.83;;;23.33;;
7375;SDS011;3728;42.266;24.944;2022-12-20T18:04:54;37.20;;;23.73;;